Time;durP1;ratioP1;P1;durP2;ratioP2;P2;SDS_P1;SDS_P2;PMS_P1;PMS_P2;Temp;Humidity;BMP_temperature;BMP_pressure;BME280_temperature;BME280_humidity;BME280_pressure;Samples;Min_cycle;Max_cycle;Signal;HPM_P1;HPM_P2
2023/01/01 00:01:41;;;;;;;;;9.00;6.67;;;;;15.19;49.69;100923.00;5058680;28;45522;-73
2023/01/01 00:04:13;;;;;;;;;6.67;5.67;;;;;15.13;49.99;100918.31;5058299;28;45340;-75
2023/01/01 00:06:39;;;;;;;;;7.33;6.33;;;;;15.01;49.97;100899.06;5058583;28;45497;-73
2023/01/01 00:11:48;;;;;;;;;4.00;4.00;;;;;15.18;50.46;100921.31;5057955;28;45538;-73
2023/01/01 00:14:13;;;;;;;;;4.33;4.33;;;;;14.88;50.59;100870.16;5058011;28;45296;-72
2023/01/01 00:16:39;;;;;;;;;6.33;6.33;;;;;15.14;50.58;100928.03;5056927;28;45380;-75
2023/01/01 00:19:04;;;;;;;;;6.67;6.67;;;;;15.17;50.80;100941.06;5056890;28;46740;-74
2023/01/01 00:21:29;;;;;;;;;6.00;5.00;;;;;15.16;51.16;100924.16;5058137;28;45267;-75
2023/01/01 00:23:55;;;;;;;;;6.00;5.00;;;;;15.11;51.22;100910.47;5058154;28;45364;-73
2023/01/01 00:26:20;;;;;;;;;6.67;4.33;;;;;15.11;51.22;100917.66;5040061;28;45265;-75
2023/01/01 00:28:46;;;;;;;;;9.00;4.33;;;;;15.14;51.19;100936.06;5057845;28;46490;-73
2023/01/01 00:31:16;;;;;;;;;4.67;4.67;;;;;15.07;51.09;100927.88;5039464;28;45397;-75
2023/01/01 00:33:42;;;;;;;;;4.67;4.33;;;;;14.45;51.59;100817.00;5057419;28;45258;-74
2023/01/01 00:36:14;;;;;;;;;3.33;3.33;;;;;15.14;51.53;100939.56;5058021;28;45328;-73
2023/01/01 00:38:41;;;;;;;;;6.67;6.67;;;;;15.15;51.83;100927.00;5057948;28;46718;-74
2023/01/01 00:41:07;;;;;;;;;11.67;9.00;;;;;14.89;51.88;100874.50;5057736;28;45530;-74
2023/01/01 00:43:32;;;;;;;;;4.33;4.33;;;;;14.89;52.07;100885.22;5057524;28;45436;-74
2023/01/01 00:45:58;;;;;;;;;8.33;8.00;;;;;15.14;52.04;100909.28;5057711;28;45428;-74
2023/01/01 00:48:23;;;;;;;;;8.00;8.00;;;;;15.10;52.60;100907.94;5057488;28;46194;-75
2023/01/01 00:50:50;;;;;;;;;10.00;8.67;;;;;15.10;52.68;100926.69;5057184;28;45393;-74
2023/01/01 00:53:16;;;;;;;;;9.67;9.00;;;;;14.94;52.75;100895.41;5057693;28;45527;-73
2023/01/01 00:55:42;;;;;;;;;5.00;5.00;;;;;14.95;52.64;100883.69;5057613;28;45368;-73
2023/01/01 00:58:08;;;;;;;;;6.00;4.67;;;;;14.30;52.93;100788.22;5039263;28;47233;-72
2023/01/01 01:00:34;;;;;;;;;9.00;8.00;;;;;15.01;52.90;100898.22;5057200;28;45249;-73
2023/01/01 01:03:00;;;;;;;;;8.00;4.00;;;;;15.11;52.77;100925.69;5057900;28;45262;-75
2023/01/01 01:05:25;;;;;;;;;5.33;5.00;;;;;14.79;52.81;100856.94;5057646;28;45523;-73
2023/01/01 01:07:51;;;;;;;;;6.00;6.00;;;;;15.13;53.02;100921.00;5057231;28;45914;-75
2023/01/01 01:10:17;;;;;;;;;5.50;5.50;;;;;14.97;53.01;100908.44;5039182;28;45329;-73
2023/01/01 01:12:42;;;;;;;;;6.33;5.67;;;;;14.67;53.07;100827.03;5057099;28;45507;-75
2023/01/01 01:15:09;;;;;;;;;8.00;4.00;;;;;14.76;53.40;100863.47;5073616;27;45335;-73
2023/01/01 01:17:35;;;;;;;;;4.00;4.00;;;;;15.13;53.23;100942.41;5077434;27;46585;-72
2023/01/01 01:20:00;;;;;;;;;7.67;6.33;;;;;14.94;53.48;100897.25;5077346;27;45508;-73
2023/01/01 01:22:26;;;;;;;;;4.00;4.00;;;;;14.79;53.54;100876.50;5077764;28;45282;-74
2023/01/01 01:24:51;;;;;;;;;6.33;6.33;;;;;15.06;53.59;100928.03;5077599;28;45479;-73
2023/01/01 01:27:17;;;;;;;;;6.00;5.00;;;;;14.76;53.84;100868.81;5077249;28;52999;-73
2023/01/01 01:29:42;;;;;;;;;6.00;4.00;;;;;14.70;53.89;100864.16;5080999;28;45482;-73
2023/01/01 01:32:09;;;;;;;;;6.00;6.00;;;;;14.86;54.20;100890.06;5083879;28;45957;-74
2023/01/01 01:34:34;;;;;;;;;8.33;5.33;;;;;14.40;54.21;100813.94;5084352;28;45269;-74
2023/01/01 01:37:00;;;;;;;;;9.33;8.33;;;;;14.73;54.10;100881.69;5083595;27;46351;-74
2023/01/01 01:39:26;;;;;;;;;4.00;3.00;;;;;14.81;54.40;100892.41;5083896;27;45434;-74
2023/01/01 01:41:51;;;;;;;;;10.00;8.00;;;;;14.74;54.63;100886.88;5083926;27;45252;-73
2023/01/01 01:44:47;;;;;;;;;5.67;5.67;;;;;15.09;54.72;100952.63;5084135;28;45247;-74
2023/01/01 01:47:34;;;;;;;;;7.67;4.33;;;;;15.10;54.75;100961.50;5084006;27;46475;-75
2023/01/01 01:50:06;;;;;;;;;6.33;5.67;;;;;14.68;54.89;100902.78;5084101;28;45678;-73
2023/01/01 01:52:34;;;;;;;;;3.67;3.00;;;;;14.99;55.01;100937.72;5083893;28;45342;-74
2023/01/01 01:55:04;;;;;;;;;6.33;6.00;;;;;14.68;55.12;100900.94;5084136;27;45303;-74
2023/01/01 01:57:31;;;;;;;;;8.33;7.00;;;;;15.01;55.16;100963.34;5082311;28;48170;-74
2023/01/01 01:59:57;;;;;;;;;6.33;6.33;;;;;14.85;55.26;100934.75;5083718;28;45450;-73
2023/01/01 02:02:33;;;;;;;;;7.33;5.67;;;;;14.95;55.53;100945.28;5083840;27;45328;-73
2023/01/01 02:04:58;;;;;;;;;9.67;7.67;;;;;15.06;55.56;100986.94;5083784;27;45293;-74
2023/01/01 02:07:26;;;;;;;;;6.67;6.67;;;;;15.07;55.72;100988.63;5083708;27;46420;-73
2023/01/01 02:09:52;;;;;;;;;10.00;8.00;;;;;15.05;55.29;100979.94;5083610;27;45391;-75
2023/01/01 02:12:17;;;;;;;;;9.00;5.33;;;;;14.65;55.45;100905.78;5082071;28;45365;-74
2023/01/01 02:14:43;;;;;;;;;4.33;4.33;;;;;14.83;55.69;100943.94;5076158;27;45183;-73
2023/01/01 02:17:21;;;;;;;;;5.00;4.33;;;;;15.04;55.99;100988.97;5063236;28;46299;-73
2023/01/01 02:20:09;;;;;;;;;8.00;5.00;;;;;15.01;56.00;100992.78;5044807;28;45521;-75
2023/01/01 02:22:35;;;;;;;;;11.67;8.00;;;;;15.03;55.98;101006.03;5063349;28;45406;-73
2023/01/01 02:25:20;;;;;;;;;5.00;5.00;;;;;14.77;56.24;100956.13;5063271;28;45391;-74
2023/01/01 02:28:23;;;;;;;;;6.00;6.00;;;;;15.01;56.23;100986.59;5063018;28;46538;-75
2023/01/01 02:30:52;;;;;;;;;8.00;6.33;;;;;14.87;56.80;100978.25;5063588;28;45381;-73
2023/01/01 02:33:24;;;;;;;;;5.67;4.67;;;;;14.57;56.56;100922.66;5063288;28;45560;-72
2023/01/01 02:36:00;;;;;;;;;9.00;7.00;;;;;14.93;57.17;100998.16;5063343;28;45490;-75
2023/01/01 02:38:35;;;;;;;;;6.33;6.33;;;;;14.93;57.10;100997.31;5062828;28;45824;-76
2023/01/01 02:41:20;;;;;;;;;7.67;7.67;;;;;14.67;56.96;100966.16;5058643;28;45495;-71
2023/01/01 02:43:45;;;;;;;;;5.33;4.33;;;;;13.99;57.07;100851.31;5058161;28;45383;-74
2023/01/01 02:46:11;;;;;;;;;7.00;5.33;;;;;14.88;57.40;101012.03;5059717;28;45423;-73
2023/01/01 02:48:47;;;;;;;;;7.67;6.67;;;;;14.88;57.49;101013.88;5059674;28;45455;-74
2023/01/01 02:51:21;;;;;;;;;5.00;2.00;;;;;14.87;57.42;101013.03;5041402;28;45696;-74
2023/01/01 02:54:17;;;;;;;;;6.33;4.67;;;;;14.88;57.64;101012.03;5059677;28;45948;-74
2023/01/01 02:57:10;;;;;;;;;7.67;7.67;;;;;14.88;57.88;101011.19;5041266;28;45320;-74
2023/01/01 03:03:17;;;;;;;;;7.67;5.67;;;;;14.80;58.01;101013.84;5059189;28;45317;-73
2023/01/01 03:09:12;;;;;;;;;9.33;7.33;;;;;14.78;58.01;101010.50;5059641;28;45550;-73
2023/01/01 03:11:50;;;;;;;;;8.00;4.67;;;;;14.82;58.17;101018.06;5042250;28;45599;-74
2023/01/01 03:14:20;;;;;;;;;9.00;6.00;;;;;14.80;58.23;101003.97;5059126;28;45334;-71
2023/01/01 03:17:02;;;;;;;;;6.33;6.00;;;;;14.63;58.23;100982.72;5059321;28;45443;-73
2023/01/01 03:19:34;;;;;;;;;12.67;8.33;;;;;14.70;58.23;100984.56;5059443;28;45327;-73
2023/01/01 03:22:10;;;;;;;;;5.00;5.00;;;;;14.59;58.17;100977.69;5058844;28;45856;-72
2023/01/01 03:24:57;;;;;;;;;5.00;4.00;;;;;14.75;58.75;101011.66;5058918;28;45268;-76
2023/01/01 03:27:27;;;;;;;;;7.67;6.00;;;;;14.78;58.59;101022.03;5059066;28;45427;-75
2023/01/01 03:29:58;;;;;;;;;4.67;4.67;;;;;14.64;58.80;100997.78;5061193;28;45545;-72
2023/01/01 03:32:59;;;;;;;;;8.00;6.33;;;;;14.76;58.61;101032.06;5059055;28;45502;-74
2023/01/01 03:35:18;;;;;;;;;6.67;6.67;;;;;14.32;58.72;100951.19;5058460;28;45251;-73
2023/01/01 03:37:48;;;;;;;;;8.33;6.33;;;;;14.75;59.06;101046.47;5060396;28;45301;-73
2023/01/01 03:40:16;;;;;;;;;4.33;4.33;;;;;14.14;58.96;100953.97;5058812;28;45333;-74
2023/01/01 03:42:49;;;;;;;;;10.00;8.33;;;;;14.53;59.21;101014.97;5058306;28;45789;-74
2023/01/01 03:45:32;;;;;;;;;6.00;5.00;;;;;14.79;59.19;101055.84;5058478;28;45468;-73
2023/01/01 03:47:59;;;;;;;;;5.33;5.33;;;;;14.78;59.27;101043.44;5058708;28;45406;-72
2023/01/01 03:50:54;;;;;;;;;9.00;8.00;;;;;14.01;59.28;100921.50;5058841;28;45353;-75
2023/01/01 03:53:41;;;;;;;;;5.00;5.00;;;;;14.15;59.24;100939.59;5039488;28;48452;-73
2023/01/01 03:56:13;;;;;;;;;11.67;6.33;;;;;14.75;59.34;101033.09;5058330;28;45537;-73
2023/01/01 03:58:50;;;;;;;;;6.00;5.00;;;;;14.73;59.56;101051.16;5058542;28;45302;-74
2023/01/01 04:01:27;;;;;;;;;9.67;7.67;;;;;14.28;59.72;100993.47;5058765;28;45531;-73
2023/01/01 04:03:53;;;;;;;;;10.33;7.00;;;;;14.37;59.66;100990.81;5039922;28;47524;-74
2023/01/01 04:06:19;;;;;;;;;8.33;5.67;;;;;14.57;59.79;101035.03;5040089;28;45375;-73
2023/01/01 04:08:45;;;;;;;;;5.67;4.00;;;;;14.69;59.84;101070.38;5058178;28;45312;-75
2023/01/01 04:14:02;;;;;;;;;7.00;6.33;;;;;14.66;59.97;101074.22;5057888;28;45480;-72
2023/01/01 04:16:28;;;;;;;;;7.00;6.33;;;;;14.58;60.24;101053.59;5058562;28;45348;-73
2023/01/01 04:18:53;;;;;;;;;7.33;7.33;;;;;13.95;60.22;100946.19;5059762;28;45633;-74
2023/01/01 04:21:18;;;;;;;;;6.33;5.00;;;;;14.69;60.62;101068.53;5059398;28;45292;-72
2023/01/01 04:23:44;;;;;;;;;4.00;4.00;;;;;14.32;60.49;101015.38;5058010;28;55078;-73
2023/01/01 04:26:13;;;;;;;;;6.67;6.67;;;;;14.55;60.81;101061.13;5058180;28;45499;-74
2023/01/01 04:28:40;;;;;;;;;10.00;6.33;;;;;14.30;60.54;101028.91;5058152;28;45324;-74
2023/01/01 04:31:05;;;;;;;;;6.33;5.00;;;;;14.68;60.36;101093.63;5058247;28;45245;-73
2023/01/01 04:33:31;;;;;;;;;5.67;5.00;;;;;14.57;60.47;101076.00;5057751;28;45752;-74
2023/01/01 04:36:05;;;;;;;;;9.33;6.33;;;;;14.67;60.63;101089.28;5039702;28;45202;-73
2023/01/01 04:38:32;;;;;;;;;6.00;6.00;;;;;14.51;60.64;101074.00;5057852;28;45254;-74
2023/01/01 04:40:59;;;;;;;;;8.00;4.67;;;;;14.51;60.99;101070.47;5058052;28;45364;-74
2023/01/01 04:43:25;;;;;;;;;6.00;6.00;;;;;13.69;60.88;100944.41;5057574;28;46012;-72
2023/01/01 04:45:58;;;;;;;;;4.67;4.67;;;;;14.44;61.32;101080.16;5039702;28;45619;-74
2023/01/01 04:48:24;;;;;;;;;5.67;4.67;;;;;14.36;61.04;101053.31;5039748;28;45354;-74
2023/01/01 04:51:03;;;;;;;;;7.33;7.33;;;;;13.82;61.15;100964.53;5057958;28;45493;-73
2023/01/01 04:53:30;;;;;;;;;4.00;4.00;;;;;14.18;61.39;101048.91;5039198;28;48664;-74
2023/01/01 04:56:01;;;;;;;;;10.00;9.00;;;;;14.52;61.69;101106.94;5057271;28;45428;-72
2023/01/01 04:58:27;;;;;;;;;8.00;6.33;;;;;14.53;61.78;101103.25;5057727;28;45284;-74
2023/01/01 05:00:52;;;;;;;;;9.00;5.67;;;;;14.30;61.56;101061.00;5057083;28;45384;-73
2023/01/01 05:03:17;;;;;;;;;6.67;5.00;;;;;14.53;61.44;101093.38;5056862;28;45518;-73
2023/01/01 05:05:43;;;;;;;;;7.00;5.67;;;;;14.55;61.65;101112.78;5056819;28;50002;-72
2023/01/01 05:08:08;;;;;;;;;6.33;5.00;;;;;14.47;61.90;101082.50;5057575;28;45259;-73
2023/01/01 05:10:34;;;;;;;;;8.00;6.00;;;;;13.80;61.96;100982.53;5057666;28;45492;-74
2023/01/01 05:12:59;;;;;;;;;8.33;7.00;;;;;14.55;62.04;101115.47;5057240;28;46485;-73
2023/01/01 05:15:24;;;;;;;;;8.33;6.33;;;;;14.45;61.89;101106.75;5061651;28;45532;-73
2023/01/01 05:17:50;;;;;;;;;4.67;4.67;;;;;14.50;62.03;101122.31;5076123;28;47933;-72
2023/01/01 05:20:15;;;;;;;;;12.67;7.67;;;;;14.52;61.95;101134.53;5078041;27;45347;-75
2023/01/01 05:22:40;;;;;;;;;8.67;7.67;;;;;14.41;62.31;101110.69;5077013;27;47343;-75
2023/01/01 05:25:06;;;;;;;;;5.00;5.00;;;;;14.38;62.27;101116.34;5077397;27;48897;-72
2023/01/01 05:27:31;;;;;;;;;7.00;5.00;;;;;13.89;62.25;101035.88;5077678;28;45345;-74
2023/01/01 05:29:57;;;;;;;;;5.00;4.00;;;;;14.12;62.38;101073.59;5076205;28;45491;-73
2023/01/01 05:32:23;;;;;;;;;0.00;0.00;;;;;14.50;62.38;101147.22;5077312;28;46260;-73
2023/01/01 05:34:48;;;;;;;;;6.00;5.00;;;;;14.36;62.46;101136.25;5077168;27;45608;-74
2023/01/01 05:37:13;;;;;;;;;5.67;4.33;;;;;14.50;62.70;101141.03;5077206;28;45702;-75
2023/01/01 05:39:39;;;;;;;;;6.00;5.33;;;;;14.13;62.67;101080.63;5077226;27;45414;-71
2023/01/01 05:42:04;;;;;;;;;9.67;4.00;;;;;14.47;62.68;101165.44;5079065;27;45591;-72
2023/01/01 05:44:29;;;;;;;;;5.67;5.67;;;;;14.46;63.09;101161.94;5076735;28;45401;-74
2023/01/01 05:46:55;;;;;;;;;7.67;5.67;;;;;14.43;62.87;101158.69;5076698;27;55284;-74
2023/01/01 05:49:20;;;;;;;;;4.33;4.33;;;;;14.31;62.96;101142.06;5077430;28;45393;-73
2023/01/01 05:51:45;;;;;;;;;8.00;6.33;;;;;14.05;62.69;101104.66;5076526;27;56038;-73
2023/01/01 05:54:10;;;;;;;;;4.67;4.67;;;;;14.29;63.04;101144.06;5077037;28;45378;-71
2023/01/01 05:56:39;;;;;;;;;7.67;6.33;;;;;14.41;63.32;101174.88;5077529;28;45310;-75
2023/01/01 05:59:04;;;;;;;;;5.67;5.33;;;;;13.63;63.05;101037.75;5077033;27;56371;-74
2023/01/01 06:01:30;;;;;;;;;6.33;5.00;;;;;14.35;63.36;101145.25;5076565;27;45563;-73
2023/01/01 06:03:57;;;;;;;;;5.00;5.00;;;;;14.22;63.37;101140.38;5076868;27;45290;-73
2023/01/01 06:06:28;;;;;;;;;5.00;5.00;;;;;14.35;63.60;101180.88;5075480;28;45388;-72
2023/01/01 06:08:57;;;;;;;;;8.00;6.67;;;;;14.24;63.61;101144.56;5075648;28;45613;-74
2023/01/01 06:11:22;;;;;;;;;8.33;7.33;;;;;14.39;63.44;101165.34;5076601;28;45579;-74
2023/01/01 06:13:51;;;;;;;;;6.33;6.33;;;;;14.39;63.56;101154.66;5075106;28;45571;-73
2023/01/01 06:16:16;;;;;;;;;8.00;4.67;;;;;14.25;63.52;101126.66;5057538;28;45455;-72
2023/01/01 06:18:42;;;;;;;;;7.33;6.00;;;;;14.35;63.56;101147.94;5059992;28;45552;-72
2023/01/01 06:21:09;;;;;;;;;5.33;4.33;;;;;14.37;63.54;101145.94;5041888;28;47308;-72
2023/01/01 06:23:35;;;;;;;;;8.67;6.00;;;;;14.39;63.81;101151.97;5059369;28;46193;-74
2023/01/01 06:26:09;;;;;;;;;6.00;4.67;;;;;14.20;63.62;101119.09;5060027;28;45479;-74
2023/01/01 06:28:34;;;;;;;;;6.33;4.67;;;;;14.35;63.64;101155.97;5060121;28;45292;-72
2023/01/01 06:31:01;;;;;;;;;4.67;4.00;;;;;14.35;63.64;101139.91;5059590;28;46314;-73
2023/01/01 06:33:28;;;;;;;;;10.33;8.33;;;;;14.36;63.52;101138.91;5059786;28;45238;-73
2023/01/01 06:35:53;;;;;;;;;7.67;6.00;;;;;14.34;63.95;101140.91;5061047;28;45329;-72
2023/01/01 06:38:18;;;;;;;;;7.33;6.00;;;;;14.31;63.88;101134.88;5041729;28;45479;-71
2023/01/01 06:40:54;;;;;;;;;5.00;5.00;;;;;14.12;63.74;101105.69;5041039;28;58647;-73
2023/01/01 06:43:19;;;;;;;;;7.67;6.33;;;;;14.28;64.10;101137.03;5059584;28;45417;-72
2023/01/01 06:45:44;;;;;;;;;6.33;3.33;;;;;14.21;63.79;101131.47;5059829;28;45451;-75
2023/01/01 06:48:10;;;;;;;;;6.00;4.00;;;;;14.39;64.06;101168.03;5059466;28;45893;-73
2023/01/01 06:50:35;;;;;;;;;8.00;6.33;;;;;14.35;63.87;101166.66;5059317;28;46536;-72
2023/01/01 06:53:00;;;;;;;;;5.67;5.00;;;;;14.23;63.79;101150.91;5059242;28;45420;-72
2023/01/01 06:55:26;;;;;;;;;7.33;4.67;;;;;14.21;63.91;101158.22;5059335;28;45372;-74
2023/01/01 06:57:51;;;;;;;;;9.33;6.00;;;;;14.21;63.77;101152.88;5059730;28;45364;-73
2023/01/01 07:00:16;;;;;;;;;8.33;6.00;;;;;13.90;63.89;101100.88;5059466;28;45475;-71
2023/01/01 07:02:42;;;;;;;;;6.67;6.00;;;;;14.18;63.82;101145.16;5059286;28;45479;-74
2023/01/01 07:05:07;;;;;;;;;5.00;5.00;;;;;13.81;63.88;101091.09;5059383;28;45640;-72
2023/01/01 07:07:33;;;;;;;;;5.67;3.33;;;;;14.48;63.83;101201.91;5041481;28;45589;-74
2023/01/01 07:09:58;;;;;;;;;5.67;4.00;;;;;13.76;63.75;101070.22;5059152;28;50925;-72
2023/01/01 07:12:23;;;;;;;;;4.67;4.00;;;;;14.43;63.58;101196.16;5059080;28;45507;-73
2023/01/01 07:14:49;;;;;;;;;4.00;4.00;;;;;14.49;64.00;101214.28;5052614;28;65450;-73
2023/01/01 07:17:14;;;;;;;;;2.67;2.67;;;;;14.47;64.04;101211.75;5079608;27;45214;-73
2023/01/01 07:19:39;;;;;;;;;5.00;3.33;;;;;14.46;64.08;101214.59;5077767;28;47246;-74
2023/01/01 07:22:04;;;;;;;;;5.00;5.00;;;;;14.43;64.24;101225.59;5078701;27;58965;-72
2023/01/01 07:24:30;;;;;;;;;12.00;5.00;;;;;14.24;64.25;101184.66;5078848;28;55962;-71
2023/01/01 07:26:55;;;;;;;;;6.00;6.00;;;;;14.38;64.21;101209.13;5079101;27;45268;-73
2023/01/01 07:29:20;;;;;;;;;5.00;5.00;;;;;14.17;64.53;101177.41;5079165;28;45714;-73
2023/01/01 07:31:46;;;;;;;;;4.67;4.33;;;;;14.19;64.33;101186.94;5078561;27;58381;-74
2023/01/01 07:34:14;;;;;;;;;3.00;1.33;;;;;14.41;64.70;101230.22;5079277;27;45489;-74
2023/01/01 07:36:40;;;;;;;;;6.00;4.00;;;;;14.44;64.77;101238.00;5079434;27;45351;-74
2023/01/01 07:39:06;;;;;;;;;10.33;8.67;;;;;14.40;64.83;101242.75;5078867;27;46391;-73
2023/01/01 07:41:31;;;;;;;;;5.00;4.67;;;;;14.44;64.58;101244.19;5077600;28;45475;-71
2023/01/01 07:43:56;;;;;;;;;9.67;5.00;;;;;14.28;64.69;101212.78;5079389;27;45355;-72
2023/01/01 07:46:22;;;;;;;;;7.67;6.33;;;;;13.89;64.92;101163.34;5079422;27;45244;-73
2023/01/01 07:48:47;;;;;;;;;3.67;3.67;;;;;14.30;65.00;101226.81;5077554;28;48684;-75
2023/01/01 07:51:12;;;;;;;;;4.33;3.33;;;;;14.12;65.08;101196.59;5078897;27;45425;-74
2023/01/01 07:53:38;;;;;;;;;5.67;4.00;;;;;14.19;65.09;101212.84;5078432;27;55295;-74
2023/01/01 07:56:03;;;;;;;;;7.33;5.33;;;;;14.40;64.90;101268.66;5079078;27;45741;-73
2023/01/01 07:58:29;;;;;;;;;4.67;4.67;;;;;14.42;65.13;101256.84;5078757;27;46064;-73
2023/01/01 08:00:55;;;;;;;;;4.00;3.67;;;;;13.66;64.93;101142.47;5078570;27;47350;-73
2023/01/01 08:03:20;;;;;;;;;3.00;3.00;;;;;13.27;64.74;101109.06;5077220;28;45214;-75
2023/01/01 08:05:45;;;;;;;;;7.33;6.00;;;;;14.05;64.78;101214.28;5079207;27;45164;-73
2023/01/01 08:08:11;;;;;;;;;5.33;2.67;;;;;14.25;64.99;101258.56;5078667;27;47015;-74
2023/01/01 08:10:36;;;;;;;;;5.67;4.00;;;;;14.36;64.97;101267.31;5078778;28;45459;-74
2023/01/01 08:13:04;;;;;;;;;5.00;5.00;;;;;14.03;64.69;101216.25;5079329;28;45267;-76
2023/01/01 08:15:29;;;;;;;;;5.33;4.00;;;;;14.42;64.89;101293.47;5065774;27;45386;-74
2023/01/01 08:18:03;;;;;;;;;6.00;4.67;;;;;14.41;64.83;101289.91;5039651;28;47005;-73
2023/01/01 08:20:30;;;;;;;;;6.67;5.33;;;;;13.94;64.64;101211.84;5039937;28;45304;-72
2023/01/01 08:22:55;;;;;;;;;4.33;3.33;;;;;13.92;64.96;101216.50;5058088;28;45258;-74
2023/01/01 08:25:21;;;;;;;;;8.33;7.33;;;;;14.16;64.91;101272.00;5058364;28;45338;-73
2023/01/01 08:27:47;;;;;;;;;5.67;4.33;;;;;14.27;64.93;101291.34;5057823;28;45412;-74
2023/01/01 08:30:14;;;;;;;;;4.33;4.33;;;;;14.28;64.89;101282.31;5058243;28;45380;-76
2023/01/01 08:32:39;;;;;;;;;8.00;6.33;;;;;14.09;65.05;101260.25;5056547;28;45278;-75
2023/01/01 08:35:06;;;;;;;;;7.33;4.67;;;;;14.36;65.07;101305.59;5058259;28;45247;-73
2023/01/01 08:37:31;;;;;;;;;7.00;5.67;;;;;14.34;64.97;101290.69;5057798;28;46745;-73
2023/01/01 08:39:56;;;;;;;;;4.00;4.00;;;;;14.27;64.80;101294.00;5056755;28;45242;-74
2023/01/01 08:42:22;;;;;;;;;7.33;6.33;;;;;14.03;65.23;101271.56;5057864;28;45507;-73
2023/01/01 08:44:47;;;;;;;;;6.00;4.00;;;;;14.34;65.30;101304.06;5057471;28;45475;-76
2023/01/01 08:47:24;;;;;;;;;5.00;5.00;;;;;14.31;65.31;101316.75;5039222;28;51650;-74
2023/01/01 08:49:49;;;;;;;;;9.33;7.67;;;;;14.33;65.34;101319.28;5057708;28;45341;-73
2023/01/01 08:52:15;;;;;;;;;7.33;4.33;;;;;14.41;65.21;101313.16;5039446;28;45497;-75
2023/01/01 08:54:41;;;;;;;;;5.67;5.67;;;;;14.34;64.97;101296.06;5039772;28;45578;-72
2023/01/01 08:57:06;;;;;;;;;6.67;6.67;;;;;14.27;64.73;101291.34;5057371;28;45719;-73
2023/01/01 08:59:31;;;;;;;;;6.33;6.33;;;;;14.45;65.14;101310.06;5057387;28;45594;-74
2023/01/01 09:01:58;;;;;;;;;7.67;6.00;;;;;14.43;65.15;101304.03;5039682;28;45446;-74
2023/01/01 09:04:24;;;;;;;;;7.33;5.00;;;;;14.41;65.22;101300.63;5058284;28;45364;-74
2023/01/01 09:06:49;;;;;;;;;5.67;4.67;;;;;14.23;65.03;101263.22;5057337;28;45503;-75
2023/01/01 09:09:14;;;;;;;;;8.00;7.67;;;;;14.21;65.01;101248.31;5039210;28;45403;-73
2023/01/01 09:11:50;;;;;;;;;8.67;7.00;;;;;14.51;64.97;101295.22;5057068;28;48345;-74
2023/01/01 09:14:15;;;;;;;;;6.00;5.00;;;;;14.50;65.04;101288.19;5057476;28;45231;-74
2023/01/01 09:16:40;;;;;;;;;7.33;4.33;;;;;14.02;65.12;101206.56;5056125;28;67583;-72
2023/01/01 09:19:06;;;;;;;;;7.33;4.67;;;;;14.40;65.12;101279.38;5057349;28;45522;-73
2023/01/01 09:21:31;;;;;;;;;5.00;5.00;;;;;14.27;64.81;101243.19;5057317;28;45234;-74
2023/01/01 09:23:56;;;;;;;;;8.67;7.67;;;;;14.47;65.33;101297.38;5057083;28;48161;-74
2023/01/01 09:26:21;;;;;;;;;7.00;4.33;;;;;14.47;65.16;101297.38;5057150;28;53377;-74
2023/01/01 09:28:47;;;;;;;;;8.00;5.00;;;;;14.52;65.02;101278.16;5057407;28;45341;-74
2023/01/01 09:31:12;;;;;;;;;10.00;8.00;;;;;14.55;65.11;101278.69;5057416;28;46070;-73
2023/01/01 09:33:38;;;;;;;;;6.00;3.67;;;;;14.59;65.06;101284.56;5058797;28;45518;-74
2023/01/01 09:36:22;;;;;;;;;6.33;6.00;;;;;14.66;64.95;101276.75;5039384;28;48540;-72
2023/01/01 09:38:52;;;;;;;;;6.33;3.33;;;;;14.12;64.79;101191.25;5057049;28;45175;-72
2023/01/01 09:42:01;;;;;;;;;9.67;8.00;;;;;14.27;64.73;101207.59;5038937;28;45253;-74
2023/01/01 09:44:45;;;;;;;;;8.33;5.00;;;;;14.71;64.62;101282.47;5057207;28;45217;-75
2023/01/01 09:47:19;;;;;;;;;8.00;6.33;;;;;14.69;64.46;101285.31;5056647;28;47240;-72
2023/01/01 09:49:47;;;;;;;;;8.67;6.67;;;;;14.60;64.72;101275.53;5056942;28;45486;-74
2023/01/01 09:52:15;;;;;;;;;4.00;4.00;;;;;14.53;64.70;101274.50;5060758;28;45368;-72
2023/01/01 09:54:55;;;;;;;;;4.33;4.00;;;;;14.62;64.72;101297.66;5060747;28;45246;-75
2023/01/01 09:57:27;;;;;;;;;8.67;6.00;;;;;14.72;64.65;101319.78;5060228;28;46195;-73
2023/01/01 09:59:53;;;;;;;;;9.00;5.00;;;;;13.03;64.73;101038.41;5060181;28;45373;-74
2023/01/01 10:02:40;;;;;;;;;6.33;5.00;;;;;14.74;64.53;101320.47;5060198;28;45860;-73
2023/01/01 10:05:08;;;;;;;;;10.00;7.67;;;;;14.78;64.56;101312.97;5060552;28;45487;-73
2023/01/01 10:07:42;;;;;;;;;5.00;4.33;;;;;14.81;64.56;101329.53;5060045;28;46719;-75
2023/01/01 10:10:44;;;;;;;;;6.33;5.00;;;;;14.80;64.38;101325.19;5060169;28;45253;-74
2023/01/01 10:13:19;;;;;;;;;7.33;6.00;;;;;14.75;64.52;101323.97;4992185;28;45496;-74
2023/01/01 10:16:07;;;;;;;;;8.00;5.33;;;;;14.75;64.55;101322.16;5060157;28;45220;-74
2023/01/01 10:18:37;;;;;;;;;9.67;6.33;;;;;14.72;64.90;101322.47;5059941;28;45645;-74
2023/01/01 10:21:08;;;;;;;;;6.67;5.00;;;;;14.73;64.49;101317.94;5059685;28;45573;-74
2023/01/01 10:23:48;;;;;;;;;7.00;4.67;;;;;14.41;64.75;101286.41;5060400;28;45460;-74
2023/01/01 10:26:16;;;;;;;;;8.67;5.67;;;;;14.68;65.19;101320.25;5060293;28;45336;-73
2023/01/01 10:28:53;;;;;;;;;6.00;6.00;;;;;14.50;64.88;101301.56;5041324;28;47418;-75
2023/01/01 10:31:33;;;;;;;;;7.67;7.67;;;;;14.48;64.65;101284.84;5059562;28;45370;-74
2023/01/01 10:34:01;;;;;;;;;8.00;5.00;;;;;14.62;64.89;101305.69;5059787;28;45340;-74
2023/01/01 10:36:26;;;;;;;;;6.33;5.67;;;;;14.67;64.90;101306.03;5041783;28;45572;-74
2023/01/01 10:38:51;;;;;;;;;8.00;5.00;;;;;14.72;64.82;101305.56;5059602;28;45848;-74
2023/01/01 10:41:17;;;;;;;;;5.00;5.00;;;;;14.61;64.66;101283.41;5060195;28;52276;-75
2023/01/01 10:43:44;;;;;;;;;6.33;5.67;;;;;14.71;64.75;101315.44;5061868;28;45358;-74
2023/01/01 10:46:14;;;;;;;;;5.33;5.33;;;;;13.91;64.34;101182.75;5060188;28;45599;-73
2023/01/01 10:49:00;;;;;;;;;8.33;5.67;;;;;14.51;64.70;101260.44;5041351;28;48800;-76
2023/01/01 10:51:25;;;;;;;;;7.33;7.33;;;;;14.67;64.75;101275.75;5059235;28;45187;-74
2023/01/01 10:53:54;;;;;;;;;7.33;7.00;;;;;14.46;64.52;101244.03;5041524;28;45418;-75
2023/01/01 10:56:22;;;;;;;;;10.00;6.33;;;;;14.52;64.59;101251.41;5041535;28;45684;-74
2023/01/01 10:58:49;;;;;;;;;6.33;6.00;;;;;13.91;64.73;101142.66;5041002;28;48845;-76
2023/01/01 11:01:26;;;;;;;;;7.67;7.00;;;;;14.72;64.80;101257.38;5040925;28;46621;-75
2023/01/01 11:04:07;;;;;;;;;11.00;9.33;;;;;14.72;65.12;101249.34;5040904;28;45240;-73
2023/01/01 11:06:41;;;;;;;;;10.33;9.00;;;;;14.70;65.59;101248.69;5041424;28;45332;-74
2023/01/01 11:09:28;;;;;;;;;8.67;6.00;;;;;14.50;65.76;101222.13;5059002;28;46091;-75
2023/01/01 11:12:05;;;;;;;;;8.33;7.33;;;;;14.70;65.50;101249.53;5058847;28;45681;-74
2023/01/01 11:14:41;;;;;;;;;8.00;5.00;;;;;14.34;65.71;101187.22;5047869;28;45322;-75
2023/01/01 11:17:08;;;;;;;;;8.33;6.67;;;;;14.68;65.88;101239.97;5079491;28;45227;-77
2023/01/01 11:19:38;;;;;;;;;6.00;6.00;;;;;14.76;65.24;101243.53;5078877;27;45768;-72
2023/01/01 11:22:04;;;;;;;;;7.67;7.67;;;;;14.69;65.65;101237.13;5079234;27;45517;-74
2023/01/01 11:24:34;;;;;;;;;6.33;4.00;;;;;13.45;65.50;101027.09;5080513;27;45241;-73
2023/01/01 11:27:24;;;;;;;;;10.00;6.67;;;;;14.72;65.41;101228.78;5080772;27;45529;-75
2023/01/01 11:29:53;;;;;;;;;10.00;6.00;;;;;14.25;65.55;101164.94;5078849;27;45473;-74
2023/01/01 11:32:31;;;;;;;;;9.67;8.00;;;;;14.56;65.59;101188.56;5078824;27;45458;-74
2023/01/01 11:35:05;;;;;;;;;8.00;5.00;;;;;14.60;65.67;101179.19;5077702;28;45367;-74
2023/01/01 11:37:38;;;;;;;;;2.00;2.00;;;;;14.64;65.69;101188.63;5079022;27;45481;-74
2023/01/01 11:40:13;;;;;;;;;9.00;5.67;;;;;14.43;66.57;101148.00;5078580;27;46721;-74
2023/01/01 11:42:49;;;;;;;;;7.00;5.33;;;;;14.46;66.68;101161.09;5078618;27;45578;-74
2023/01/01 11:45:39;;;;;;;;;12.00;10.67;;;;;13.89;66.40;101056.44;5078901;27;45369;-74
2023/01/01 11:48:15;;;;;;;;;11.67;9.67;;;;;14.66;66.65;101180.44;5079368;27;45469;-73